createdAt,value
2023-04-15T00:01:29.596Z,4.50
2023-04-15T00:03:57.841Z,5.20
2023-04-15T00:06:25.845Z,5.40
2023-04-15T00:08:53.932Z,5.40
2023-04-15T00:11:21.271Z,4.20
2023-04-15T00:13:48.984Z,4.30
2023-04-15T00:16:16.707Z,5.10
2023-04-15T00:18:44.068Z,4.70
2023-04-15T00:21:11.930Z,4.90
2023-04-15T00:23:39.593Z,4.70
2023-04-15T00:26:07.498Z,5.10
2023-04-15T00:28:35.053Z,4.80
2023-04-15T00:31:04.067Z,4.70
2023-04-15T00:33:31.632Z,4.80
2023-04-15T00:35:59.288Z,5.70
2023-04-15T00:38:26.768Z,4.60
2023-04-15T00:40:56.085Z,4.50
2023-04-15T00:43:23.805Z,4.90
2023-04-15T00:45:53.119Z,4.90
2023-04-15T00:48:20.990Z,4.90
2023-04-15T00:50:48.983Z,4.60
2023-04-15T00:53:16.797Z,4.80
2023-04-15T00:55:44.925Z,4.70
2023-04-15T00:58:13.071Z,5.10
2023-04-15T01:00:43.386Z,5.30
2023-04-15T01:03:11.437Z,5.10
2023-04-15T01:05:39.344Z,5.30
2023-04-15T01:08:07.398Z,6.00
2023-04-15T01:10:35.623Z,6.40
2023-04-15T01:13:03.900Z,5.60
2023-04-15T01:15:32.268Z,5.80
2023-04-15T01:18:00.416Z,5.70
2023-04-15T01:20:29.327Z,5.70
2023-04-15T01:22:56.860Z,7.20
2023-04-15T01:25:33.696Z,5.90
2023-04-15T01:28:01.901Z,6.20
2023-04-15T01:30:33.261Z,6.40
2023-04-15T01:33:00.882Z,6.00
2023-04-15T01:35:28.643Z,6.50
2023-04-15T01:38:05.162Z,5.70
2023-04-15T01:40:34.567Z,5.60
2023-04-15T01:43:03.446Z,5.80
2023-04-15T01:45:31.233Z,5.80
2023-04-15T01:47:58.733Z,7.00
2023-04-15T01:50:26.806Z,6.70
2023-04-15T01:52:56.584Z,7.20
2023-04-15T01:55:25.174Z,5.90
2023-04-15T01:57:52.811Z,6.40
2023-04-15T02:00:22.666Z,6.40
2023-04-15T02:02:50.781Z,6.50
2023-04-15T02:05:18.585Z,6.10
2023-04-15T02:07:48.219Z,6.80
2023-04-15T02:10:16.291Z,6.50
2023-04-15T02:12:44.015Z,6.80
2023-04-15T02:15:12.083Z,6.50
2023-04-15T02:17:39.600Z,5.90
2023-04-15T02:20:09.348Z,6.80
2023-04-15T02:22:37.113Z,6.90
2023-04-15T02:25:05.651Z,6.30
2023-04-15T02:27:33.180Z,6.40
2023-04-15T02:30:01.184Z,7.60
2023-04-15T02:32:28.837Z,7.60
2023-04-15T02:34:56.676Z,7.50
2023-04-15T02:37:26.839Z,7.80
2023-04-15T02:39:54.439Z,8.10
2023-04-15T02:42:22.617Z,7.80
2023-04-15T02:44:50.625Z,8.50
2023-04-15T02:47:18.786Z,8.10
2023-04-15T02:49:46.255Z,6.40
2023-04-15T02:52:13.914Z,8.30
2023-04-15T02:54:41.488Z,8.10
2023-04-15T02:57:10.203Z,8.00
2023-04-15T02:59:38.910Z,7.80
2023-04-15T03:02:07.975Z,8.10
2023-04-15T03:04:35.586Z,8.00
2023-04-15T03:07:05.186Z,7.80
2023-04-15T03:09:36.026Z,6.50
2023-04-15T03:12:03.926Z,6.10
2023-04-15T03:14:31.382Z,7.00
2023-04-15T03:16:59.118Z,8.20
2023-04-15T03:19:26.748Z,8.50
2023-04-15T03:21:54.360Z,8.90
2023-04-15T03:24:22.112Z,9.50
2023-04-15T03:26:49.604Z,8.40
2023-04-15T03:29:17.560Z,9.40
2023-04-15T03:31:45.430Z,8.80
2023-04-15T03:34:13.063Z,8.30
2023-04-15T03:36:40.926Z,8.10
2023-04-15T03:39:08.647Z,9.00
2023-04-15T03:41:36.479Z,8.70
2023-04-15T03:44:04.372Z,8.90
2023-04-15T03:46:32.399Z,8.90
2023-04-15T03:49:01.034Z,7.90
2023-04-15T03:51:29.037Z,8.70
2023-04-15T03:53:56.618Z,8.20
2023-04-15T03:56:24.936Z,8.00
2023-04-15T03:58:53.268Z,7.80
2023-04-15T04:01:21.684Z,8.50
2023-04-15T04:03:49.975Z,7.50
2023-04-15T04:06:18.130Z,8.50
2023-04-15T04:08:45.801Z,7.00
2023-04-15T04:11:13.514Z,8.40
2023-04-15T04:13:41.414Z,8.50
2023-04-15T04:16:09.186Z,8.20
2023-04-15T04:18:37.299Z,7.90
2023-04-15T04:21:05.474Z,7.90
2023-04-15T04:23:33.257Z,7.50
2023-04-15T04:26:00.865Z,7.70
2023-04-15T04:28:28.574Z,7.50
2023-04-15T04:30:56.466Z,8.40
2023-04-15T04:33:24.610Z,7.60
2023-04-15T04:35:52.220Z,8.50
2023-04-15T04:38:19.895Z,9.30
2023-04-15T04:40:47.392Z,8.30
2023-04-15T04:43:15.720Z,8.80
2023-04-15T04:45:43.307Z,8.10
2023-04-15T04:48:11.033Z,8.70
2023-04-15T04:50:38.713Z,9.20
2023-04-15T04:53:06.319Z,9.40
2023-04-15T04:55:36.368Z,8.90
2023-04-15T04:58:03.939Z,9.20
2023-04-15T05:00:31.447Z,8.60
2023-04-15T05:02:59.529Z,8.90
2023-04-15T05:05:27.494Z,8.80
2023-04-15T05:07:55.309Z,9.60
2023-04-15T05:10:22.835Z,9.50
2023-04-15T05:12:51.463Z,9.70
2023-04-15T05:15:19.203Z,9.00
2023-04-15T05:17:46.894Z,9.70
2023-04-15T05:20:15.183Z,9.80
2023-04-15T05:22:42.714Z,9.70
2023-04-15T05:25:10.387Z,9.20
2023-04-15T05:27:38.122Z,9.70
2023-04-15T05:30:06.863Z,9.20
2023-04-15T05:32:34.676Z,8.60
2023-04-15T05:35:02.636Z,10.00
2023-04-15T05:37:30.314Z,10.90
2023-04-15T05:39:57.870Z,9.30
2023-04-15T05:42:25.625Z,9.70
2023-04-15T05:44:53.160Z,8.90
2023-04-15T05:47:20.935Z,8.80
2023-04-15T05:49:48.784Z,7.60
2023-04-15T05:52:16.396Z,10.70
2023-04-15T05:54:44.147Z,10.00
2023-04-15T05:57:11.711Z,10.40
2023-04-15T05:59:39.376Z,10.40
2023-04-15T06:02:07.156Z,10.10
2023-04-15T06:04:34.889Z,11.30
2023-04-15T06:07:02.615Z,12.00
2023-04-15T06:09:30.399Z,11.90
2023-04-15T06:11:59.012Z,13.20
2023-04-15T06:14:26.925Z,11.50
2023-04-15T06:16:54.877Z,10.50
2023-04-15T06:19:22.572Z,10.90
2023-04-15T06:21:50.365Z,11.60
2023-04-15T06:24:18.122Z,9.80
2023-04-15T06:26:45.806Z,11.80
2023-04-15T06:29:14.053Z,11.80
2023-04-15T06:31:42.177Z,12.50
2023-04-15T06:34:10.780Z,13.50
2023-04-15T06:36:38.288Z,11.50
2023-04-15T06:39:05.765Z,13.30
2023-04-15T06:41:33.804Z,12.90
2023-04-15T06:44:01.725Z,11.90
2023-04-15T06:46:29.432Z,10.60
2023-04-15T06:48:57.016Z,12.50
2023-04-15T06:51:26.635Z,7.70
2023-04-15T06:53:54.609Z,13.70
2023-04-15T06:56:23.069Z,14.40
2023-04-15T06:58:50.950Z,12.40
2023-04-15T07:01:19.381Z,12.10
2023-04-15T07:03:47.447Z,12.50
2023-04-15T07:06:15.122Z,15.60
2023-04-15T07:08:43.272Z,14.40
2023-04-15T07:11:11.134Z,11.40
2023-04-15T07:13:38.834Z,13.90
2023-04-15T07:16:06.560Z,15.10
2023-04-15T07:18:34.513Z,13.90
2023-04-15T07:21:02.476Z,13.30
2023-04-15T07:23:30.928Z,10.00
2023-04-15T07:25:58.925Z,12.30
2023-04-15T07:28:27.288Z,13.30
2023-04-15T07:30:56.800Z,13.30
2023-04-15T07:33:24.985Z,13.30
2023-04-15T07:35:52.884Z,13.40
2023-04-15T07:38:21.709Z,14.10
2023-04-15T07:40:49.236Z,12.10
2023-04-15T07:43:16.885Z,11.70
2023-04-15T07:45:44.526Z,12.50
2023-04-15T07:48:12.295Z,11.80
2023-04-15T07:50:39.966Z,14.90
2023-04-15T07:53:07.486Z,14.50
2023-04-15T07:55:35.026Z,13.00
2023-04-15T07:58:02.649Z,14.00
2023-04-15T08:00:30.464Z,10.90
2023-04-15T08:02:59.236Z,14.90
2023-04-15T08:05:26.892Z,14.00
2023-04-15T08:07:54.683Z,14.30
2023-04-15T08:10:23.057Z,14.90
2023-04-15T08:12:53.740Z,14.70
2023-04-15T08:15:21.898Z,14.40
2023-04-15T08:17:49.381Z,13.40
2023-04-15T08:20:17.266Z,14.80
2023-04-15T08:22:47.332Z,14.30
2023-04-15T08:25:15.078Z,15.20
2023-04-15T08:27:42.668Z,12.40
2023-04-15T08:30:11.140Z,14.70
2023-04-15T08:32:38.795Z,15.70
2023-04-15T08:35:07.467Z,15.40
2023-04-15T08:37:35.194Z,13.80
2023-04-15T08:40:03.101Z,13.80
2023-04-15T08:42:42.381Z,14.30
2023-04-15T08:45:10.926Z,15.00
2023-04-15T08:47:39.904Z,14.70
2023-04-15T08:50:11.272Z,15.90
2023-04-15T08:52:39.686Z,15.80
2023-04-15T08:55:09.270Z,14.60
2023-04-15T08:57:37.904Z,14.60
2023-04-15T09:00:06.734Z,15.60
2023-04-15T09:02:34.886Z,15.20
2023-04-15T09:05:05.861Z,15.90
2023-04-15T09:07:35.972Z,14.70
2023-04-15T09:10:04.431Z,15.30
2023-04-15T09:12:36.533Z,15.30
2023-04-15T09:15:04.674Z,16.60
2023-04-15T09:17:34.248Z,15.70
2023-04-15T09:20:14.186Z,16.50
2023-04-15T09:22:43.436Z,15.20
2023-04-15T09:25:22.906Z,14.40
2023-04-15T09:27:52.263Z,15.40
2023-04-15T09:30:20.054Z,11.60
2023-04-15T09:32:51.703Z,16.10
2023-04-15T09:35:21.763Z,15.50
2023-04-15T09:37:50.898Z,14.00
2023-04-15T09:40:36.626Z,15.70
2023-04-15T09:43:05.690Z,16.90
2023-04-15T09:45:35.533Z,14.30
2023-04-15T09:48:24.174Z,12.80
2023-04-15T09:50:53.474Z,16.60
2023-04-15T09:53:23.805Z,14.80
2023-04-15T09:55:53.952Z,15.00
2023-04-15T09:58:27.117Z,16.30
2023-04-15T10:00:57.418Z,13.10
2023-04-15T10:03:36.442Z,14.00
2023-04-15T10:06:04.985Z,15.10
2023-04-15T10:08:34.451Z,13.00
2023-04-15T10:11:02.982Z,14.00
2023-04-15T10:13:36.767Z,14.30
2023-04-15T10:16:13.943Z,12.90
2023-04-15T10:18:45.458Z,13.10
2023-04-15T10:21:17.858Z,12.70
2023-04-15T10:23:46.733Z,13.90
2023-04-15T10:26:16.868Z,12.10
2023-04-15T10:28:46.800Z,13.20
2023-04-15T10:31:16.540Z,13.30
2023-04-15T10:33:45.826Z,13.50
2023-04-15T10:36:14.975Z,14.60
2023-04-15T10:38:45.370Z,13.40
2023-04-15T10:41:27.701Z,14.10
2023-04-15T10:43:59.214Z,14.90
2023-04-15T10:46:44.744Z,15.00
2023-04-15T10:49:14.409Z,15.30
2023-04-15T10:51:50.844Z,14.20
2023-04-15T10:54:24.352Z,14.70
2023-04-15T10:57:08.632Z,15.80
2023-04-15T10:59:39.616Z,14.00
2023-04-15T11:02:07.545Z,10.90
2023-04-15T11:04:55.556Z,16.70
2023-04-15T11:07:52.728Z,15.30
2023-04-15T11:10:20.658Z,13.80
2023-04-15T11:12:58.793Z,15.60
2023-04-15T11:15:41.176Z,15.70
2023-04-15T11:18:16.966Z,14.00
2023-04-15T11:21:07.839Z,14.40
2023-04-15T11:23:46.254Z,13.90
2023-04-15T11:26:14.881Z,15.10
2023-04-15T11:28:46.268Z,14.40
2023-04-15T11:31:17.239Z,13.90
2023-04-15T11:33:53.371Z,14.50
2023-04-15T11:36:20.992Z,14.10
2023-04-15T11:38:48.598Z,13.70
2023-04-15T11:41:23.555Z,15.20
2023-04-15T11:43:52.131Z,13.30
2023-04-15T11:46:22.215Z,12.20
2023-04-15T11:48:49.845Z,12.60
2023-04-15T11:51:18.134Z,11.70
2023-04-15T11:53:50.652Z,11.00
2023-04-15T11:56:20.602Z,10.50
2023-04-15T11:58:52.256Z,9.00
2023-04-15T12:01:19.935Z,9.30
2023-04-15T12:03:48.865Z,11.00
2023-04-15T12:06:25.100Z,9.40
2023-04-15T12:09:16.171Z,9.50
2023-04-15T12:11:57.767Z,10.80
2023-04-15T12:14:30.714Z,9.10
2023-04-15T12:17:02.646Z,10.40
2023-04-15T12:19:41.534Z,10.00
2023-04-15T12:22:11.822Z,9.20
2023-04-15T12:24:40.171Z,10.60
2023-04-15T12:27:11.691Z,11.20
2023-04-15T12:29:42.617Z,9.70
2023-04-15T12:32:10.011Z,9.60
2023-04-15T12:34:51.844Z,10.20
2023-04-15T12:37:19.903Z,8.80
2023-04-15T12:39:50.117Z,9.60
2023-04-15T12:42:18.375Z,9.60
2023-04-15T12:44:46.398Z,7.60
2023-04-15T12:47:14.040Z,6.90
2023-04-15T12:49:41.857Z,8.20
2023-04-15T12:52:09.557Z,8.00
2023-04-15T12:54:37.098Z,9.40
2023-04-15T12:57:07.418Z,8.90
2023-04-15T12:59:36.225Z,6.90
2023-04-15T13:02:04.646Z,7.70
2023-04-15T13:04:32.553Z,6.80
2023-04-15T13:07:01.917Z,8.00
2023-04-15T13:09:29.531Z,6.50
2023-04-15T13:11:57.758Z,5.30
2023-04-15T13:14:25.463Z,6.70
2023-04-15T13:16:53.795Z,7.50
2023-04-15T13:19:21.562Z,5.80
2023-04-15T13:21:49.284Z,5.30
2023-04-15T13:24:18.099Z,6.20
2023-04-15T13:26:46.880Z,4.10
2023-04-15T13:29:15.602Z,5.10
2023-04-15T13:31:43.594Z,4.90
2023-04-15T13:34:11.350Z,4.20
2023-04-15T13:36:39.201Z,5.10
2023-04-15T13:39:06.743Z,4.50
2023-04-15T13:41:34.361Z,5.10
2023-04-15T13:44:02.737Z,5.30
2023-04-15T13:46:31.479Z,3.90
2023-04-15T13:48:59.545Z,4.60
2023-04-15T13:51:27.409Z,4.90
2023-04-15T13:53:55.406Z,5.20
2023-04-15T13:56:23.460Z,4.20
2023-04-15T13:58:52.754Z,3.60
2023-04-15T14:01:20.895Z,4.00
2023-04-15T14:03:48.975Z,3.80
2023-04-15T14:06:17.103Z,4.50
2023-04-15T14:08:45.070Z,3.80
2023-04-15T14:11:13.155Z,3.50
2023-04-15T14:13:41.286Z,3.80
2023-04-15T14:16:09.289Z,4.00
2023-04-15T14:18:37.486Z,2.70
2023-04-15T14:21:06.760Z,3.10
2023-04-15T14:23:34.477Z,4.00
2023-04-15T14:26:02.586Z,3.10
2023-04-15T14:28:30.150Z,2.70
2023-04-15T14:30:57.981Z,3.10
2023-04-15T14:33:26.012Z,3.50
2023-04-15T14:35:53.630Z,2.70
2023-04-15T14:38:22.320Z,3.10
2023-04-15T14:40:50.556Z,2.10
2023-04-15T14:43:18.212Z,2.80
2023-04-15T14:45:46.510Z,2.80
2023-04-15T14:48:14.335Z,2.60
2023-04-15T14:50:42.521Z,2.50
2023-04-15T14:53:10.395Z,2.30
2023-04-15T14:55:38.796Z,2.10
2023-04-15T14:58:10.332Z,2.80
2023-04-15T15:00:41.573Z,2.10
2023-04-15T15:03:14.368Z,1.80
2023-04-15T15:05:46.362Z,1.30
2023-04-15T15:08:14.474Z,1.60
2023-04-15T15:10:49.070Z,1.80
2023-04-15T15:13:18.738Z,1.60
2023-04-15T15:15:48.911Z,1.60
2023-04-15T15:18:19.113Z,1.50
2023-04-15T15:20:47.895Z,1.50
2023-04-15T15:23:15.922Z,1.60
2023-04-15T15:25:45.622Z,1.50
2023-04-15T15:28:13.491Z,1.50
2023-04-15T15:30:41.735Z,1.70
2023-04-15T15:33:10.671Z,1.70
2023-04-15T15:35:39.299Z,1.00
2023-04-15T15:38:07.737Z,1.00
2023-04-15T15:40:35.728Z,1.20
2023-04-15T15:43:04.367Z,1.10
2023-04-15T15:45:32.446Z,0.90
2023-04-15T15:48:01.937Z,1.40
2023-04-15T15:50:29.925Z,1.70
2023-04-15T15:52:58.377Z,1.10
2023-04-15T15:55:27.090Z,0.80
2023-04-15T15:57:55.105Z,0.70
2023-04-15T16:00:23.332Z,1.10
2023-04-15T16:05:29.140Z,1.70
2023-04-15T16:07:57.567Z,1.30
2023-04-15T16:10:25.484Z,1.70
2023-04-15T16:12:53.735Z,1.40
2023-04-15T16:15:24.910Z,1.70
2023-04-15T16:17:52.755Z,1.70
2023-04-15T16:20:20.198Z,1.60
2023-04-15T16:22:47.630Z,1.50
2023-04-15T16:25:15.417Z,1.30
2023-04-15T16:27:54.091Z,1.00
2023-04-15T16:30:28.495Z,1.50
2023-04-15T16:32:57.206Z,1.20
2023-04-15T16:35:25.277Z,1.20
2023-04-15T16:37:53.080Z,1.40
2023-04-15T16:40:20.820Z,1.30
2023-04-15T16:42:50.186Z,1.30
2023-04-15T16:45:18.056Z,0.90
2023-04-15T16:47:45.929Z,1.20
2023-04-15T16:50:13.554Z,0.90
2023-04-15T16:52:41.298Z,0.90
2023-04-15T16:55:09.206Z,1.10
2023-04-15T16:58:00.721Z,1.10
2023-04-15T17:00:24.910Z,1.00
2023-04-15T17:02:53.023Z,1.10
2023-04-15T17:05:21.115Z,0.80
2023-04-15T17:07:49.155Z,1.00
2023-04-15T17:10:17.038Z,1.00
2023-04-15T17:12:44.950Z,0.90
2023-04-15T17:15:12.696Z,1.10
2023-04-15T17:17:40.285Z,1.30
2023-04-15T17:20:08.287Z,0.70
2023-04-15T17:22:35.800Z,1.00
2023-04-15T17:25:04.292Z,1.10
2023-04-15T17:27:32.248Z,1.00
2023-04-15T17:29:59.872Z,1.60
2023-04-15T17:32:33.723Z,1.40
2023-04-15T17:35:05.570Z,1.00
2023-04-15T17:37:34.597Z,1.40
2023-04-15T17:40:02.743Z,1.30
2023-04-15T17:42:30.490Z,2.40
2023-04-15T17:44:57.928Z,1.70
2023-04-15T17:47:39.198Z,1.70
2023-04-15T17:50:12.207Z,1.90
2023-04-15T17:52:39.962Z,2.00
2023-04-15T17:55:08.354Z,1.80
2023-04-15T17:57:36.278Z,1.80
2023-04-15T18:00:06.436Z,1.60
2023-04-15T18:02:41.230Z,2.60
2023-04-15T18:05:09.876Z,2.20
2023-04-15T18:07:37.826Z,2.00
2023-04-15T18:10:07.794Z,2.00
2023-04-15T18:12:35.826Z,1.80
2023-04-15T18:15:04.306Z,2.00
2023-04-15T18:17:31.975Z,1.70
2023-04-15T18:19:59.917Z,1.80
2023-04-15T18:22:27.550Z,2.40
2023-04-15T18:24:58.569Z,2.30
2023-04-15T18:27:27.223Z,2.20
2023-04-15T18:29:55.390Z,3.00
2023-04-15T18:32:23.386Z,2.50
2023-04-15T18:34:51.288Z,2.20
2023-04-15T18:37:19.117Z,2.50
2023-04-15T18:39:47.093Z,2.60
2023-04-15T18:42:15.092Z,2.60
2023-04-15T18:44:42.875Z,2.90
2023-04-15T18:47:10.591Z,3.00
2023-04-15T18:49:38.733Z,2.70
2023-04-15T18:52:06.646Z,3.50
2023-04-15T18:54:34.282Z,2.90
2023-04-15T18:57:03.638Z,3.70
2023-04-15T18:59:32.080Z,4.00
2023-04-15T19:02:00.935Z,3.70
2023-04-15T19:04:29.318Z,4.00
2023-04-15T19:06:58.629Z,3.70
2023-04-15T19:09:28.378Z,3.40
2023-04-15T19:11:57.177Z,4.90
2023-04-15T19:14:25.034Z,4.00
2023-04-15T19:16:52.939Z,4.20
2023-04-15T19:19:20.646Z,4.20
2023-04-15T19:21:49.552Z,4.70
2023-04-15T19:24:17.699Z,4.60
2023-04-15T19:26:52.326Z,4.50
2023-04-15T19:29:20.036Z,5.20
2023-04-15T19:31:47.625Z,4.60
2023-04-15T19:34:15.486Z,4.60
2023-04-15T19:36:43.427Z,4.40
2023-04-15T19:39:11.180Z,4.20
2023-04-15T19:41:38.891Z,5.40
2023-04-15T19:44:06.689Z,4.20
2023-04-15T19:46:34.996Z,4.40
2023-04-15T19:49:03.520Z,4.30
2023-04-15T19:51:31.491Z,4.40
2023-04-15T19:53:59.372Z,3.70
2023-04-15T19:56:26.984Z,4.50
2023-04-15T19:58:55.045Z,4.20
2023-04-15T20:01:22.891Z,4.70
2023-04-15T20:03:54.001Z,4.30
2023-04-15T20:06:21.879Z,4.40
2023-04-15T20:08:49.600Z,4.50
2023-04-15T20:11:17.226Z,4.00
2023-04-15T20:13:44.825Z,4.20
2023-04-15T20:16:12.962Z,3.90
2023-04-15T20:18:40.928Z,3.50
2023-04-15T20:21:08.693Z,4.10
2023-04-15T20:23:37.856Z,4.00
2023-04-15T20:26:06.145Z,3.70
2023-04-15T20:28:33.933Z,3.70
2023-04-15T20:31:01.702Z,4.30
2023-04-15T20:33:29.384Z,4.50
2023-04-15T20:35:56.885Z,5.40
2023-04-15T20:38:24.608Z,6.20
2023-04-15T20:40:52.285Z,4.90
2023-04-15T20:43:21.301Z,4.60
2023-04-15T20:45:50.135Z,5.00
2023-04-15T20:48:18.825Z,5.20
2023-04-15T20:50:46.679Z,5.70
2023-04-15T20:53:14.417Z,5.00
2023-04-15T20:55:43.995Z,5.20
2023-04-15T20:58:11.744Z,6.40
2023-04-15T21:00:39.522Z,6.20
2023-04-15T21:03:07.335Z,6.00
2023-04-15T21:05:35.125Z,5.60
2023-04-15T21:08:03.899Z,6.50
2023-04-15T21:10:34.680Z,7.00
2023-04-15T21:13:02.538Z,7.40
2023-04-15T21:15:30.043Z,5.90
2023-04-15T21:17:57.726Z,7.00
2023-04-15T21:20:25.328Z,6.10
2023-04-15T21:22:52.977Z,6.10
2023-04-15T21:25:20.721Z,5.30
2023-04-15T21:27:48.288Z,5.10
2023-04-15T21:30:15.926Z,5.20
2023-04-15T21:32:43.516Z,5.10
2023-04-15T21:35:11.080Z,4.70
2023-04-15T21:37:38.712Z,5.10
2023-04-15T21:40:07.353Z,5.20
2023-04-15T21:42:35.086Z,5.30
2023-04-15T21:45:03.050Z,4.80
2023-04-15T21:47:31.230Z,5.20
2023-04-15T21:50:18.877Z,4.60
2023-04-15T21:52:46.475Z,4.50
2023-04-15T21:55:14.011Z,4.40
2023-04-15T21:57:41.707Z,4.20
2023-04-15T22:00:10.398Z,5.40
2023-04-15T22:02:37.983Z,4.70
2023-04-15T22:05:07.305Z,4.50
2023-04-15T22:07:35.805Z,4.10
2023-04-15T22:10:03.545Z,4.20
2023-04-15T22:12:31.337Z,5.00
2023-04-15T22:14:58.942Z,4.30
2023-04-15T22:17:27.201Z,3.90
2023-04-15T22:19:54.880Z,3.80
2023-04-15T22:22:22.373Z,4.20
2023-04-15T22:25:10.210Z,3.80
2023-04-15T22:27:37.871Z,3.30
2023-04-15T22:30:06.301Z,3.80
2023-04-15T22:32:33.910Z,4.10
2023-04-15T22:35:01.850Z,4.70
2023-04-15T22:37:30.068Z,3.90
2023-04-15T22:39:58.174Z,4.50
2023-04-15T22:42:25.968Z,4.50
2023-04-15T22:44:53.536Z,3.90
2023-04-15T22:47:20.925Z,5.10
2023-04-15T22:49:48.455Z,4.00
2023-04-15T22:52:29.417Z,4.20
2023-04-15T22:54:58.487Z,4.00
2023-04-15T22:57:27.593Z,4.90
2023-04-15T22:59:55.534Z,4.50
2023-04-15T23:02:23.397Z,4.70
2023-04-15T23:04:51.268Z,4.30
2023-04-15T23:07:19.048Z,4.60
2023-04-15T23:09:46.723Z,4.60
2023-04-15T23:12:14.448Z,4.80
2023-04-15T23:14:42.341Z,4.50
2023-04-15T23:17:10.260Z,5.20
2023-04-15T23:19:37.833Z,4.70
2023-04-15T23:22:06.619Z,6.10
2023-04-15T23:24:34.525Z,5.50
2023-04-15T23:27:02.146Z,6.00
2023-04-15T23:29:29.642Z,5.80
2023-04-15T23:31:57.338Z,6.20
2023-04-15T23:34:25.141Z,5.60
2023-04-15T23:36:52.675Z,5.40
2023-04-15T23:39:20.354Z,5.50
2023-04-15T23:41:47.824Z,6.20
2023-04-15T23:44:15.354Z,6.20
2023-04-15T23:46:43.010Z,6.90
2023-04-15T23:49:10.866Z,6.70
2023-04-15T23:51:38.505Z,7.10
2023-04-15T23:54:05.987Z,6.30
2023-04-15T23:56:33.549Z,6.70
2023-04-15T23:59:01.001Z,7.60
